Time;durP1;ratioP1;P1;durP2;ratioP2;P2;SDS_P1;SDS_P2;PMS_P1;PMS_P2;Temp;Humidity;BMP_temperature;BMP_pressure;BME280_temperature;BME280_humidity;BME280_pressure;Samples;Min_cycle;Max_cycle;Signal;HPM_P1;HPM_P2
2023/09/03 00:01:44;;;;;;;4.57;2.67;;;16.60;99.90;;;16.45;100.00;97884.00;5003756;28;20694;-39
2023/09/03 00:04:10;;;;;;;4.35;2.47;;;16.50;99.90;;;16.46;100.00;97885.72;5004302;28;20029;-38
2023/09/03 00:06:36;;;;;;;3.85;2.40;;;16.60;99.90;;;16.47;100.00;97887.44;5001245;28;20033;-38
2023/09/03 00:09:04;;;;;;;4.32;2.75;;;16.60;99.90;;;16.46;100.00;97889.25;5005542;28;20033;-38
2023/09/03 00:11:30;;;;;;;3.75;2.20;;;16.60;99.90;;;16.49;100.00;97890.88;4999404;28;20045;-40
2023/09/03 00:13:56;;;;;;;3.30;2.38;;;16.60;99.90;;;16.48;100.00;97882.03;5004031;28;20136;-41
2023/09/03 00:16:22;;;;;;;3.58;2.67;;;16.60;99.90;;;16.49;100.00;97881.09;5003566;28;20485;-41
2023/09/03 00:18:47;;;;;;;4.45;2.70;;;16.60;99.90;;;16.45;100.00;97874.19;4999667;28;20793;-40
2023/09/03 00:21:14;;;;;;;4.22;2.47;;;16.60;99.90;;;16.49;100.00;97882.88;4998785;28;20029;-41
2023/09/03 00:23:39;;;;;;;4.97;2.72;;;16.60;99.90;;;16.48;100.00;97884.69;5008952;28;20726;-41
2023/09/03 00:26:05;;;;;;;3.40;2.50;;;16.60;99.90;;;16.37;100.00;97876.44;5006256;28;20033;-41
2023/09/03 00:28:31;;;;;;;4.32;2.95;;;16.60;99.90;;;16.37;100.00;97879.09;5002110;28;20313;-41
2023/09/03 00:31:07;;;;;;;7.75;2.80;;;16.60;99.90;;;16.44;100.00;97884.94;5000702;28;20481;-40
2023/09/03 00:33:34;;;;;;;6.93;2.72;;;16.50;99.90;;;16.41;100.00;97888.63;5009177;28;20065;-41
2023/09/03 00:36:01;;;;;;;5.65;3.22;;;16.60;99.90;;;16.35;100.00;97878.31;5001023;28;20032;-44
2023/09/03 00:38:27;;;;;;;7.38;3.63;;;16.50;99.90;;;16.38;100.00;97883.47;5006418;28;20041;-42
2023/09/03 00:40:53;;;;;;;6.70;3.53;;;16.50;99.90;;;16.32;100.00;97884.63;5008848;28;20605;-41
2023/09/03 00:43:19;;;;;;;5.38;3.53;;;16.50;99.90;;;16.33;100.00;97899.69;5002676;28;20095;-41
2023/09/03 00:45:47;;;;;;;5.32;3.60;;;16.40;99.90;;;16.32;100.00;97895.28;5009258;28;20026;-42
2023/09/03 00:48:16;;;;;;;6.13;3.67;;;16.40;99.90;;;16.31;100.00;97898.03;5008068;28;20289;-41
2023/09/03 00:50:43;;;;;;;5.78;4.07;;;16.40;99.90;;;16.29;100.00;97898.09;5003510;28;20082;-41
2023/09/03 00:53:09;;;;;;;7.88;3.85;;;16.40;99.90;;;16.30;100.00;97901.66;5008645;28;20080;-41
2023/09/03 00:55:37;;;;;;;8.70;3.75;;;16.40;99.90;;;16.30;100.00;97899.84;5012115;28;20033;-41
2023/09/03 00:58:05;;;;;;;6.43;4.00;;;16.40;99.90;;;16.30;100.00;97902.50;5005515;28;20268;-40
2023/09/03 01:00:31;;;;;;;6.55;4.35;;;16.40;99.90;;;16.30;100.00;97894.50;5000892;28;20033;-41
2023/09/03 01:02:56;;;;;;;6.30;4.30;;;16.40;99.90;;;16.29;100.00;97898.09;5003382;28;20554;-41
2023/09/03 01:05:22;;;;;;;5.60;4.28;;;16.40;99.90;;;16.23;100.00;97885.13;5005060;28;20045;-41
2023/09/03 01:07:49;;;;;;;5.72;4.00;;;16.40;99.90;;;16.29;100.00;97894.59;5006327;28;20040;-41
2023/09/03 01:10:16;;;;;;;7.03;4.38;;;16.40;99.90;;;16.29;100.00;97894.59;5004308;28;20481;-40
2023/09/03 01:13:00;;;;;;;5.65;4.15;;;16.40;99.90;;;16.28;100.00;97904.38;5000185;28;20064;-41
2023/09/03 01:15:37;;;;;;;5.43;4.03;;;16.40;99.90;;;16.27;100.00;97901.78;5006002;28;20556;-40
2023/09/03 01:18:11;;;;;;;5.47;4.00;;;16.40;99.90;;;16.25;100.00;97904.53;5006264;28;20052;-41
2023/09/03 01:20:44;;;;;;;5.72;4.05;;;16.40;99.90;;;16.22;100.00;97908.22;5001573;28;20095;-42
2023/09/03 01:23:37;;;;;;;5.93;4.13;;;16.30;99.90;;;16.19;100.00;97902.19;5034708;28;20051;-42
2023/09/03 01:26:55;;;;;;;6.85;4.57;;;16.30;99.90;;;16.15;100.00;97909.47;4998222;28;21000;-40
2023/09/03 01:29:21;;;;;;;6.10;4.40;;;16.30;99.90;;;16.11;100.00;97907.91;5024300;28;20509;-41
2023/09/03 01:31:48;;;;;;;10.80;4.38;;;16.30;99.90;;;16.08;100.00;97918.72;5021773;28;20057;-41
2023/09/03 01:34:16;;;;;;;5.05;3.63;;;16.20;99.90;;;16.10;100.00;97916.84;5003450;28;20034;-40
2023/09/03 01:36:43;;;;;;;5.75;3.85;;;16.20;99.90;;;16.10;100.00;97916.84;5001601;28;20040;-41
2023/09/03 01:39:08;;;;;;;8.25;4.85;;;16.20;99.90;;;16.09;100.00;97917.75;5007669;28;20033;-42
2023/09/03 01:41:37;;;;;;;7.55;4.55;;;16.20;99.90;;;16.09;100.00;97925.75;5002325;28;20124;-41
2023/09/03 01:44:05;;;;;;;5.25;3.88;;;16.20;99.90;;;16.10;100.00;97926.63;5006042;28;20041;-41
2023/09/03 01:46:51;;;;;;;7.93;4.05;;;16.20;99.90;;;16.08;100.00;97931.13;5003714;28;20034;-43
2023/09/03 01:49:48;;;;;;;5.60;3.50;;;16.20;99.90;;;16.06;100.00;97938.34;5009086;28;24026;-40
2023/09/03 01:52:40;;;;;;;4.57;3.25;;;16.20;99.90;;;16.02;100.00;97945.63;5006776;28;20103;-40
2023/09/03 01:55:09;;;;;;;5.20;3.40;;;16.10;99.90;;;15.99;100.00;97938.66;5042620;28;20105;-41
2023/09/03 01:57:41;;;;;;;6.22;3.47;;;16.20;99.90;;;15.96;100.00;97952.13;5036528;28;20045;-41
2023/09/03 02:00:18;;;;;;;6.07;3.90;;;16.10;99.90;;;15.89;100.00;97940.06;4991191;28;20044;-41
2023/09/03 02:02:47;;;;;;;5.82;3.88;;;16.10;99.90;;;15.90;100.00;97944.44;5007121;28;20475;-41
2023/09/03 02:05:14;;;;;;;5.75;3.20;;;16.00;99.90;;;15.87;100.00;97939.28;4992493;28;20625;-41
2023/09/03 02:07:41;;;;;;;3.78;2.78;;;16.00;99.90;;;15.83;100.00;97943.88;5009213;28;20025;-41
2023/09/03 02:10:07;;;;;;;5.40;3.10;;;16.00;99.90;;;15.83;100.00;97946.53;5011018;28;20373;-41
2023/09/03 02:12:33;;;;;;;4.22;3.17;;;16.00;99.90;;;15.79;100.00;97939.66;5011953;28;20159;-41
2023/09/03 02:14:59;;;;;;;5.40;2.90;;;15.90;99.90;;;15.77;100.00;97953.97;5005673;28;20040;-41
2023/09/03 02:17:26;;;;;;;3.10;2.53;;;15.90;99.90;;;15.73;100.00;97945.22;5005458;28;20175;-42
2023/09/03 02:19:54;;;;;;;5.68;2.60;;;15.90;99.90;;;15.70;100.00;97960.47;5008692;28;20017;-41
2023/09/03 02:22:20;;;;;;;4.57;2.78;;;15.90;99.90;;;15.66;100.00;97959.75;5005805;28;20507;-41
2023/09/03 02:24:46;;;;;;;3.88;2.70;;;15.80;99.90;;;15.63;100.00;97955.47;5010083;28;20030;-41
2023/09/03 02:27:12;;;;;;;5.65;2.65;;;15.80;99.90;;;15.53;100.00;97934.72;5005080;28;20899;-41
2023/09/03 02:29:39;;;;;;;4.38;2.90;;;15.80;99.90;;;15.59;100.00;97955.69;5006493;28;20037;-41
2023/09/03 02:32:06;;;;;;;4.07;2.70;;;15.70;99.90;;;15.56;100.00;97959.38;5001303;28;20120;-44
2023/09/03 02:34:32;;;;;;;4.10;2.95;;;15.70;99.90;;;15.55;100.00;97956.78;5004945;28;20024;-41
2023/09/03 02:36:57;;;;;;;5.40;3.13;;;15.70;99.90;;;15.52;100.00;97959.56;5004938;28;20171;-41
2023/09/03 02:39:23;;;;;;;4.82;2.90;;;15.70;99.90;;;15.50;100.00;97964.09;5012951;28;20062;-40
2023/09/03 02:41:49;;;;;;;6.13;3.10;;;15.60;99.90;;;15.45;100.00;97957.22;5008561;28;20106;-41
2023/09/03 02:44:14;;;;;;;4.78;3.20;;;15.60;99.90;;;15.45;100.00;97948.38;5012339;28;20038;-44
2023/09/03 02:46:40;;;;;;;4.00;3.20;;;15.60;99.90;;;15.41;100.00;97947.66;5006682;28;22000;-40
2023/09/03 02:49:06;;;;;;;5.05;3.00;;;15.60;99.90;;;15.40;100.00;97961.88;5004852;28;20079;-42
2023/09/03 02:51:35;;;;;;;4.65;3.15;;;15.60;99.90;;;15.39;100.00;97959.31;5005678;28;20098;-41
2023/09/03 02:54:00;;;;;;;6.25;3.17;;;15.50;99.90;;;15.37;100.00;97956.72;5003981;28;20053;-41
2023/09/03 02:56:26;;;;;;;3.80;2.80;;;15.50;99.90;;;15.37;100.00;97959.38;5013821;28;20040;-40
2023/09/03 02:58:52;;;;;;;3.45;2.92;;;15.50;99.90;;;15.36;100.00;97968.28;5013872;28;20704;-40
2023/09/03 03:01:20;;;;;;;4.50;3.00;;;15.50;99.90;;;15.29;100.00;97958.88;4999143;28;20473;-42
2023/09/03 03:03:46;;;;;;;8.35;2.90;;;15.50;99.90;;;15.36;100.00;97970.06;5012427;28;20033;-40
2023/09/03 03:06:13;;;;;;;3.92;2.85;;;15.50;99.90;;;15.33;100.00;97976.41;5011181;28;20390;-40
2023/09/03 03:08:38;;;;;;;3.95;2.83;;;15.50;99.90;;;15.31;100.00;97967.66;4996432;28;20048;-41
2023/09/03 03:11:11;;;;;;;4.70;3.08;;;15.50;99.90;;;15.31;100.00;97969.41;4998689;28;20510;-39
2023/09/03 03:13:41;;;;;;;6.10;2.60;;;15.40;99.90;;;15.19;100.00;97950.47;4999259;28;20521;-40
2023/09/03 03:16:09;;;;;;;4.03;3.00;;;15.40;99.90;;;15.29;100.00;97966.84;5003197;28;20075;-41
2023/09/03 03:18:37;;;;;;;4.53;3.05;;;15.40;99.90;;;15.29;100.00;97961.53;5007339;28;20033;-41
2023/09/03 03:21:10;;;;;;;4.85;2.92;;;15.50;99.90;;;15.30;100.00;97962.41;5004294;28;20038;-42
2023/09/03 03:23:39;;;;;;;4.22;3.08;;;15.40;99.90;;;15.30;100.00;97959.75;5000788;28;20248;-41
2023/09/03 03:26:05;;;;;;;3.92;3.10;;;15.50;99.90;;;15.27;100.00;97964.28;5003411;28;20029;-41
2023/09/03 03:28:32;;;;;;;5.82;3.40;;;15.50;99.90;;;15.28;100.00;97968.63;4998192;28;20096;-41
2023/09/03 03:31:18;;;;;;;4.20;2.78;;;15.50;99.90;;;15.27;100.00;97974.91;4994968;28;20156;-40
2023/09/03 03:33:46;;;;;;;5.60;3.67;;;15.40;99.90;;;15.26;100.00;97978.47;5003607;28;20599;-40
2023/09/03 03:36:15;;;;;;;6.03;3.40;;;15.40;99.90;;;15.25;100.00;97975.88;5009591;28;20061;-44
2023/09/03 03:38:41;;;;;;;4.18;3.00;;;15.40;99.90;;;15.23;100.00;97983.06;5013593;28;20080;-44
2023/09/03 03:41:16;;;;;;;7.85;3.47;;;15.40;99.90;;;15.18;100.00;97982.41;4999965;28;20040;-42
2023/09/03 03:43:45;;;;;;;4.75;3.38;;;15.40;99.90;;;15.21;100.00;97988.44;5001164;28;20539;-42
2023/09/03 03:46:14;;;;;;;5.47;3.50;;;15.40;99.90;;;15.21;100.00;98000.88;5002700;28;20037;-42
2023/09/03 03:48:40;;;;;;;5.38;3.42;;;15.40;99.90;;;15.20;100.00;98005.34;5016403;28;20021;-41
2023/09/03 03:51:06;;;;;;;5.13;3.40;;;15.40;99.90;;;15.17;100.00;97989.53;5009627;28;20559;-40
2023/09/03 03:53:32;;;;;;;5.07;3.50;;;15.40;99.90;;;15.16;100.00;97992.25;5004903;28;20037;-41
2023/09/03 03:56:03;;;;;;;5.10;3.58;;;15.40;99.90;;;15.18;100.00;97993.94;5007136;28;20041;-42
2023/09/03 03:58:32;;;;;;;4.57;3.70;;;15.30;99.90;;;15.18;100.00;97995.69;5004245;28;20541;-41
2023/09/03 04:00:58;;;;;;;5.63;3.78;;;15.40;99.90;;;15.15;100.00;97986.09;5003538;28;20044;-41
2023/09/03 04:03:27;;;;;;;5.65;4.40;;;15.30;99.90;;;15.18;100.00;97993.03;5008431;28;20033;-40
2023/09/03 04:06:00;;;;;;;4.43;3.53;;;15.30;99.90;;;15.18;100.00;97999.25;5002999;28;20024;-42
2023/09/03 04:08:28;;;;;;;5.30;3.80;;;15.40;99.90;;;15.17;100.00;97997.50;5008199;28;20024;-43
2023/09/03 04:11:02;;;;;;;6.28;3.58;;;15.40;99.90;;;15.18;100.00;97998.34;5011057;28;20075;-42
2023/09/03 04:13:28;;;;;;;6.40;4.10;;;15.30;99.90;;;15.17;100.00;98000.16;5002086;28;20041;-43
2023/09/03 04:15:55;;;;;;;9.77;3.85;;;15.30;99.90;;;15.17;100.00;97994.00;5005772;28;20058;-41
2023/09/03 04:18:22;;;;;;;5.63;4.00;;;15.40;99.90;;;15.19;100.00;98000.94;5002071;28;20124;-40
2023/09/03 04:20:54;;;;;;;6.32;3.55;;;15.40;99.90;;;15.19;100.00;98008.06;5008320;28;20080;-42
2023/09/03 04:23:20;;;;;;;6.28;4.18;;;15.30;99.90;;;15.16;100.00;98011.72;5003475;28;20118;-43
2023/09/03 04:25:45;;;;;;;6.40;3.88;;;15.40;99.90;;;15.06;100.00;98002.47;5005991;28;20021;-42
2023/09/03 04:28:11;;;;;;;4.47;3.45;;;15.30;99.90;;;15.12;100.00;98015.44;4997462;28;20060;-42
2023/09/03 04:30:38;;;;;;;5.30;3.78;;;15.30;99.90;;;15.10;100.00;98017.31;5001281;28;20041;-41
2023/09/03 04:33:06;;;;;;;5.75;3.75;;;15.30;99.90;;;15.09;100.00;98018.22;5008285;28;20026;-42
2023/09/03 04:35:32;;;;;;;7.03;4.22;;;15.30;99.90;;;14.98;100.00;98008.09;5008882;28;20031;-40
2023/09/03 04:37:58;;;;;;;4.43;3.78;;;15.30;99.90;;;15.05;100.00;98027.28;5013020;28;20045;-41
2023/09/03 04:40:24;;;;;;;5.88;4.15;;;15.20;99.90;;;15.05;100.00;98029.94;5006546;28;20116;-42
2023/09/03 04:42:49;;;;;;;5.35;4.05;;;15.20;99.90;;;15.04;100.00;98036.19;5004642;28;20114;-41
2023/09/03 04:45:16;;;;;;;7.07;3.95;;;15.20;99.90;;;15.04;100.00;98034.41;4995433;28;20033;-42
2023/09/03 04:47:44;;;;;;;5.93;3.55;;;15.20;99.90;;;15.05;100.00;98036.09;5008736;28;20346;-41
2023/09/03 04:50:10;;;;;;;5.55;3.63;;;15.20;99.90;;;15.07;100.00;98042.25;5005681;28;20044;-43
2023/09/03 04:52:39;;;;;;;4.78;3.65;;;15.20;99.90;;;15.07;100.00;98036.94;5014875;28;20029;-41
2023/09/03 04:55:05;;;;;;;5.50;3.63;;;15.30;99.90;;;15.11;100.00;98040.31;5009219;28;20036;-43
2023/09/03 04:57:30;;;;;;;4.13;3.38;;;15.30;99.90;;;15.13;100.00;98038.44;5006129;28;20061;-41
2023/09/03 04:59:56;;;;;;;4.68;3.60;;;15.30;99.90;;;15.15;100.00;98044.53;5004847;28;20033;-41
2023/09/03 05:02:22;;;;;;;8.77;3.78;;;15.40;99.90;;;15.17;100.00;98044.47;5005763;28;20283;-41
2023/09/03 05:04:48;;;;;;;6.40;3.70;;;15.40;99.90;;;15.21;100.00;98046.91;5008560;28;20032;-43
2023/09/03 05:07:13;;;;;;;6.13;3.47;;;15.40;99.90;;;15.23;100.00;98053.00;5003039;28;20352;-43
2023/09/03 05:09:39;;;;;;;5.45;3.75;;;15.40;99.90;;;15.26;100.00;98055.53;5007323;28;21322;-41
2023/09/03 05:12:05;;;;;;;4.45;3.33;;;15.40;99.90;;;15.30;100.00;98063.38;5005543;28;20140;-41
2023/09/03 05:14:31;;;;;;;4.47;3.22;;;15.50;99.90;;;15.33;100.00;98063.25;5008434;28;20040;-41
2023/09/03 05:16:56;;;;;;;4.55;3.45;;;15.50;99.90;;;15.36;100.00;98066.63;5006847;28;20033;-41
2023/09/03 05:19:22;;;;;;;4.03;3.20;;;15.50;99.90;;;15.40;100.00;98068.19;5010776;28;20032;-42
2023/09/03 05:21:48;;;;;;;5.57;3.38;;;15.50;99.90;;;15.45;100.00;98068.84;5010359;28;20112;-44
2023/09/03 05:24:13;;;;;;;3.80;2.95;;;15.60;99.90;;;15.51;100.00;98077.50;5006974;28;20091;-41
2023/09/03 05:26:39;;;;;;;5.55;3.22;;;15.60;99.90;;;15.56;100.00;98075.44;5011813;28;20033;-42
2023/09/03 05:29:05;;;;;;;4.97;3.10;;;15.70;99.90;;;15.63;100.00;98072.47;5010473;28;20083;-43
2023/09/03 05:31:30;;;;;;;4.15;2.95;;;15.80;99.90;;;15.72;100.00;98076.50;5010373;28;20086;-41
2023/09/03 05:34:00;;;;;;;6.47;3.15;;;15.90;99.90;;;15.82;100.00;98083.09;5012018;28;20374;-41
2023/09/03 05:36:26;;;;;;;4.70;2.78;;;16.00;99.90;;;15.91;100.00;98087.13;5007544;28;20108;-42
2023/09/03 05:38:52;;;;;;;5.28;3.33;;;16.10;99.90;;;15.99;100.00;98084.97;5007645;28;20478;-41
2023/09/03 05:41:18;;;;;;;8.10;3.25;;;16.20;99.90;;;16.08;100.00;98077.47;5003005;28;20147;-41
2023/09/03 05:43:44;;;;;;;5.90;2.80;;;16.30;99.90;;;16.13;100.00;98079.00;5013161;28;20038;-41
2023/09/03 05:46:09;;;;;;;4.32;3.10;;;16.30;99.90;;;16.15;100.00;98074.47;5008577;28;20110;-41
2023/09/03 05:48:35;;;;;;;4.90;3.13;;;16.40;99.90;;;16.27;100.00;98082.78;5005784;28;20060;-41
2023/09/03 05:51:05;;;;;;;5.57;3.08;;;16.40;99.90;;;16.33;100.00;98090.44;5018288;28;20038;-41
2023/09/03 05:53:33;;;;;;;4.57;3.10;;;16.50;99.90;;;16.32;100.00;98068.28;5015028;28;20033;-41
2023/09/03 05:56:06;;;;;;;4.93;2.80;;;16.60;99.90;;;16.50;100.00;98086.97;5003270;28;20529;-42
2023/09/03 05:58:33;;;;;;;4.93;2.95;;;16.60;99.90;;;16.57;100.00;98085.72;5010808;28;20041;-43
2023/09/03 06:01:02;;;;;;;5.00;3.20;;;16.70;99.90;;;16.65;100.00;98088.84;5011126;28;20380;-40
2023/09/03 06:03:27;;;;;;;4.07;3.30;;;16.80;99.90;;;16.70;100.00;98075.31;5009784;28;20150;-41
2023/09/03 06:05:53;;;;;;;4.63;3.15;;;16.80;99.90;;;16.78;100.00;98078.44;5006979;28;20041;-41
2023/09/03 06:08:19;;;;;;;4.00;3.08;;;16.90;99.90;;;16.88;100.00;98074.38;5013974;28;20046;-42
2023/09/03 06:10:44;;;;;;;4.07;2.97;;;17.00;99.90;;;16.97;100.00;98079.22;5019844;28;20036;-41
2023/09/03 06:13:10;;;;;;;5.35;3.00;;;17.10;99.90;;;17.10;100.00;98078.59;5010212;28;20041;-41
2023/09/03 06:15:36;;;;;;;6.45;3.47;;;17.20;99.90;;;17.21;100.00;98080.69;5004215;28;20033;-41
2023/09/03 06:18:02;;;;;;;4.65;3.40;;;17.40;99.90;;;17.35;100.00;98083.47;5004222;28;20087;-41
2023/09/03 06:20:27;;;;;;;4.22;2.92;;;17.50;99.90;;;17.47;100.00;98090.81;5010411;28;20124;-42
2023/09/03 06:22:53;;;;;;;3.95;3.28;;;17.60;99.90;;;17.60;100.00;98088.34;5009218;28;20033;-44
2023/09/03 06:25:19;;;;;;;5.38;3.70;;;17.70;99.90;;;17.67;100.00;98095.06;5011848;28;20365;-41
2023/09/03 06:27:44;;;;;;;5.47;3.67;;;17.80;99.90;;;17.78;100.00;98101.63;5011709;28;20352;-42
2023/09/03 06:30:11;;;;;;;5.40;3.65;;;17.90;99.90;;;17.88;100.00;98098.41;5007834;28;20035;-41
2023/09/03 06:32:37;;;;;;;5.80;3.65;;;18.00;99.90;;;18.00;100.00;98110.22;5005756;28;20072;-42
2023/09/03 06:35:04;;;;;;;9.98;4.63;;;18.10;99.90;;;18.03;100.00;98110.00;5016189;28;20037;-40
2023/09/03 06:37:30;;;;;;;6.78;3.97;;;18.20;99.90;;;18.15;100.00;98115.63;5009991;28;20032;-44
2023/09/03 06:39:55;;;;;;;5.43;3.88;;;18.30;99.90;;;18.26;100.00;98121.22;5015485;28;20040;-43
2023/09/03 06:42:22;;;;;;;5.38;3.63;;;18.40;99.90;;;18.38;100.00;98130.34;5000319;28;20635;-41
2023/09/03 06:44:47;;;;;;;5.55;4.10;;;18.50;99.90;;;18.47;100.00;98122.66;5011772;28;20133;-43
2023/09/03 06:47:13;;;;;;;4.32;3.40;;;18.60;99.90;;;18.54;100.00;98122.28;5006365;28;20048;-43
2023/09/03 06:49:39;;;;;;;4.32;3.55;;;18.60;99.90;;;18.64;100.00;98132.34;4999492;28;20108;-41
2023/09/03 06:52:05;;;;;;;6.20;2.85;;;18.70;99.90;;;18.72;100.00;98131.94;5004474;28;20041;-45
2023/09/03 06:54:30;;;;;;;2.45;2.20;;;18.80;99.90;;;18.81;100.00;98134.09;5008088;28;20049;-47
2023/09/03 06:56:56;;;;;;;4.13;2.53;;;18.90;99.90;;;18.89;100.00;98139.84;5008544;28;20032;-45
2023/09/03 06:59:23;;;;;;;3.50;2.20;;;18.90;99.90;;;18.96;100.00;98151.03;5006490;28;20034;-42
2023/09/03 07:01:50;;;;;;;4.10;2.55;;;19.00;99.90;;;18.99;100.00;98150.00;5004468;28;20397;-41
2023/09/03 07:04:16;;;;;;;5.22;3.17;;;19.10;99.90;;;18.99;100.00;98150.84;5009963;28;20030;-44
2023/09/03 07:06:42;;;;;;;4.60;2.88;;;19.10;99.90;;;19.07;100.00;98167.28;5001941;28;20226;-41
2023/09/03 07:09:10;;;;;;;5.75;3.55;;;19.10;99.90;;;19.05;100.00;98168.34;5001904;28;20056;-41
2023/09/03 07:11:36;;;;;;;4.57;3.00;;;19.20;99.90;;;19.06;100.00;98170.06;5006655;28;21192;-41
2023/09/03 07:14:02;;;;;;;3.83;2.90;;;19.10;99.90;;;19.13;100.00;98171.44;5018167;28;20501;-42
2023/09/03 07:16:28;;;;;;;5.43;2.85;;;19.20;99.90;;;19.22;100.00;98173.56;5007893;28;20041;-41
2023/09/03 07:18:53;;;;;;;3.72;2.55;;;19.30;99.90;;;19.34;100.00;98163.06;5012724;28;20123;-42
2023/09/03 07:21:19;;;;;;;4.90;3.95;;;19.40;99.90;;;19.43;100.00;98174.09;5006457;28;20107;-41
2023/09/03 07:23:45;;;;;;;6.40;3.22;;;19.50;99.90;;;19.55;100.00;98176.97;5004763;28;20124;-42
2023/09/03 07:26:11;;;;;;;4.07;3.03;;;19.60;99.90;;;19.67;100.00;98170.84;5001022;28;20386;-42
2023/09/03 07:28:41;;;;;;;4.38;2.90;;;19.80;99.90;;;19.78;100.00;98186.28;5003679;28;20060;-41
2023/09/03 07:31:06;;;;;;;5.15;2.92;;;19.90;99.90;;;19.82;100.00;98183.31;5003362;28;20033;-41
2023/09/03 07:33:33;;;;;;;5.18;2.80;;;19.90;99.90;;;19.82;100.00;98185.13;5001213;28;20513;-40
2023/09/03 07:35:58;;;;;;;3.42;2.60;;;19.90;99.90;;;19.85;100.00;98179.59;4994614;28;20465;-41
2023/09/03 07:38:27;;;;;;;3.85;2.80;;;20.00;99.90;;;19.97;100.00;98191.31;5002283;28;20037;-41
2023/09/03 07:40:53;;;;;;;4.35;2.85;;;20.00;99.90;;;20.06;100.00;98196.09;5001895;28;20029;-42
2023/09/03 07:43:19;;;;;;;4.45;3.00;;;20.10;99.90;;;20.08;100.00;98199.56;5004163;28;20520;-44
2023/09/03 07:45:45;;;;;;;4.68;3.35;;;20.20;99.90;;;20.08;100.00;98202.25;5003528;28;20357;-44
2023/09/03 07:48:11;;;;;;;5.75;2.95;;;20.20;99.90;;;20.15;100.00;98205.38;5002210;28;20053;-42
2023/09/03 07:50:40;;;;;;;5.32;3.08;;;20.20;99.90;;;20.18;100.00;98199.84;5008359;28;20515;-43
2023/09/03 07:53:06;;;;;;;3.85;3.00;;;20.20;99.90;;;20.20;100.00;98193.41;5004521;28;20044;-41
2023/09/03 07:55:31;;;;;;;3.72;2.65;;;20.30;99.90;;;20.33;100.00;98203.34;5000707;28;20433;-42
2023/09/03 07:57:57;;;;;;;3.53;2.78;;;20.40;99.90;;;20.40;100.00;98194.84;5006714;28;20041;-42
2023/09/03 08:00:23;;;;;;;4.55;2.58;;;20.50;99.90;;;20.55;100.00;98208.19;5005234;28;20034;-42
2023/09/03 08:02:49;;;;;;;5.25;2.60;;;20.60;99.90;;;20.65;100.00;98211.16;5005373;28;20099;-42
2023/09/03 08:05:16;;;;;;;5.22;2.80;;;20.70;99.90;;;20.79;100.00;98211.13;5001704;28;20513;-42
2023/09/03 08:07:42;;;;;;;3.95;3.47;;;20.80;99.90;;;20.88;100.00;98220.38;5004682;28;20389;-41
2023/09/03 08:10:08;;;;;;;4.75;3.38;;;20.90;99.90;;;20.95;100.00;98219.88;5003115;28;20479;-42
2023/09/03 08:12:34;;;;;;;4.65;3.53;;;21.00;99.90;;;21.17;100.00;98224.69;5001158;28;20033;-41
2023/09/03 08:15:00;;;;;;;4.80;3.30;;;21.20;99.90;;;21.34;100.00;98218.16;5003766;28;20037;-42
2023/09/03 08:17:26;;;;;;;7.78;4.82;;;21.30;99.90;;;21.43;100.00;98235.47;5002928;28;20048;-44
2023/09/03 08:19:52;;;;;;;6.07;4.10;;;21.40;99.90;;;21.51;100.00;98233.13;5000375;28;20167;-41
2023/09/03 08:22:18;;;;;;;4.72;3.38;;;21.50;99.90;;;21.49;100.00;98221.66;5001642;28;20438;-42
2023/09/03 08:24:43;;;;;;;5.10;3.67;;;21.50;99.90;;;21.45;100.00;98217.47;5009313;28;20485;-43
2023/09/03 08:27:09;;;;;;;3.72;2.88;;;21.50;99.90;;;21.47;100.00;98228.94;5008999;28;20025;-42
2023/09/03 08:29:35;;;;;;;4.88;3.10;;;21.40;99.90;;;21.40;100.00;98235.66;4995745;28;20624;-42
2023/09/03 08:32:00;;;;;;;5.15;2.95;;;21.40;99.90;;;21.39;100.00;98233.97;5002733;28;20036;-43
2023/09/03 08:34:26;;;;;;;4.47;3.50;;;21.30;99.90;;;21.36;100.00;98231.47;5002953;28;20603;-42
2023/09/03 08:36:52;;;;;;;6.40;3.78;;;21.40;99.90;;;21.39;100.00;98223.22;5008869;28;20053;-42
2023/09/03 08:39:17;;;;;;;4.97;2.85;;;21.40;99.90;;;21.51;100.00;98227.75;4999925;28;20068;-42
2023/09/03 08:41:45;;;;;;;4.70;3.17;;;21.50;99.90;;;21.60;100.00;98236.16;4999563;28;20864;-41
2023/09/03 08:44:28;;;;;;;4.18;3.10;;;21.60;99.90;;;21.59;100.00;98226.38;4994917;28;20482;-41
2023/09/03 08:47:00;;;;;;;5.78;3.15;;;21.60;99.90;;;21.59;100.00;98237.13;5013844;28;20041;-41
2023/09/03 08:49:30;;;;;;;3.08;2.70;;;21.60;99.90;;;21.70;100.00;98229.19;5014453;28;20254;-42
2023/09/03 08:51:59;;;;;;;4.65;3.20;;;21.60;99.90;;;21.62;100.00;98234.22;5010559;28;20062;-43
2023/09/03 08:54:26;;;;;;;4.45;2.83;;;21.60;99.90;;;21.76;100.00;98239.50;5003908;28;20563;-44
2023/09/03 08:56:52;;;;;;;4.38;3.03;;;21.70;99.90;;;21.78;100.00;98247.44;5009201;28;20697;-42
2023/09/03 08:59:18;;;;;;;3.97;2.78;;;21.80;99.90;;;21.95;100.00;98248.94;5006472;28;20033;-42
2023/09/03 09:01:53;;;;;;;5.07;2.83;;;21.90;99.90;;;22.10;100.00;98251.41;5007681;28;20513;-42
2023/09/03 09:04:19;;;;;;;4.88;2.63;;;22.10;99.90;;;22.27;100.00;98239.53;5003258;28;20458;-42
2023/09/03 09:06:46;;;;;;;5.47;2.50;;;22.30;99.90;;;22.48;100.00;98247.84;5004578;28;20381;-42
2023/09/03 09:09:14;;;;;;;2.58;2.15;;;22.50;99.90;;;22.74;100.00;98252.31;4995752;28;20029;-42
2023/09/03 09:11:48;;;;;;;3.97;2.30;;;22.70;99.90;;;22.83;100.00;98262.41;5005623;28;20470;-42
2023/09/03 09:14:33;;;;;;;5.05;2.20;;;22.90;99.90;;;23.02;100.00;98262.78;4998974;28;20041;-42
2023/09/03 09:16:59;;;;;;;2.90;2.30;;;23.00;99.90;;;23.17;100.00;98270.72;5002937;28;20033;-43
2023/09/03 09:19:25;;;;;;;4.28;2.50;;;23.20;99.90;;;23.29;100.00;98269.75;5005249;28;20403;-42
2023/09/03 09:21:52;;;;;;;3.80;2.38;;;23.30;99.90;;;23.32;100.00;98268.69;5005831;28;20025;-43
2023/09/03 09:24:18;;;;;;;4.07;2.72;;;23.40;99.90;;;23.31;100.00;98270.53;5001421;28;20049;-43
2023/09/03 09:26:44;;;;;;;6.32;2.53;;;23.40;99.90;;;23.30;100.00;98276.88;4999227;28;20040;-43
2023/09/03 09:29:09;;;;;;;4.68;2.90;;;23.40;99.90;;;23.23;100.00;98260.31;5004887;28;20481;-43
2023/09/03 09:31:35;;;;;;;2.38;2.17;;;23.30;99.90;;;23.28;100.00;98273.44;5000090;28;20034;-43
2023/09/03 09:34:12;;;;;;;2.72;2.00;;;23.30;99.90;;;23.30;100.00;98276.88;4997850;28;20341;-42
2023/09/03 09:36:38;;;;;;;3.83;2.40;;;23.30;99.90;;;23.28;100.00;98269.91;4998094;28;20038;-43
2023/09/03 09:39:08;;;;;;;3.65;2.10;;;23.30;99.90;;;23.29;100.00;98274.28;5010539;28;20053;-41
2023/09/03 09:41:40;;;;;;;2.53;2.20;;;23.30;99.90;;;23.30;100.00;98279.56;5011239;28;20275;-40
2023/09/03 09:44:10;;;;;;;2.78;2.20;;;23.30;99.90;;;23.33;100.00;98284.72;5016014;28;20462;-40
2023/09/03 09:46:37;;;;;;;4.75;2.40;;;23.30;99.90;;;23.19;100.00;98272.31;4997820;28;20452;-43
2023/09/03 09:49:03;;;;;;;2.55;1.80;;;23.30;99.90;;;23.34;100.00;98277.50;5002962;28;20083;-41
2023/09/03 09:51:30;;;;;;;2.47;2.00;;;23.30;99.90;;;23.41;100.00;98276.06;4995760;28;20099;-41
2023/09/03 09:53:58;;;;;;;1.98;1.65;;;23.40;99.90;;;23.44;100.00;98283.91;4993850;28;20026;-41
2023/09/03 09:56:34;;;;;;;2.95;1.83;;;23.50;99.90;;;23.37;100.00;98280.81;4996560;28;20061;-41
2023/09/03 09:59:00;;;;;;;1.83;1.60;;;23.40;99.90;;;23.44;100.00;98281.22;5010916;28;20034;-40
2023/09/03 10:01:41;;;;;;;2.17;1.45;;;23.40;99.90;;;23.42;100.00;98270.56;5007262;28;20379;-43
2023/09/03 10:04:06;;;;;;;1.77;1.33;;;23.40;99.90;;;23.36;100.00;98271.00;5015936;28;20390;-41
2023/09/03 10:06:33;;;;;;;3.55;1.92;;;23.40;99.90;;;23.29;100.00;98269.75;5010497;28;20036;-42
2023/09/03 10:08:58;;;;;;;3.38;1.92;;;23.40;99.90;;;23.44;100.00;98279.38;5004868;28;20394;-42
2023/09/03 10:11:24;;;;;;;2.15;1.55;;;23.40;99.90;;;23.54;100.00;98273.28;5040592;28;20047;-41
2023/09/03 10:13:50;;;;;;;2.45;1.88;;;23.60;99.90;;;23.55;98.66;98270.50;5008187;28;20041;-42
2023/09/03 10:16:19;;;;;;;3.33;1.58;;;23.60;99.90;;;23.52;98.88;98262.63;5003109;28;20198;-42